McLain, Mississippi
Current Conditions -  °F | °C
As of 3:53 PM on Sunday 21 Dec 2014 (Local Time) from KHBG Reporting Station
Overcast Overcast  
Wind Chill: 56°   Ceiling: 1400
Heat Index: 56°   Visibility: 10mi
Dew Point: 49°   Wind: 5mph
Humidity: 77%   Direction: 60°ENE
Pressure: 30.03"   Gusts: NA
Location:  31.11°N, 88.83°W
Report Text: KHBG 212153Z AUTO 06004KT 10SM OVC014 13/09 A3003 RMK AO2 SLP168 T01330094
Loading
Personal Weather Stations






























Interactive Weather Map New forecast layout! Learn more

10-Day Weather Forecast

Advertisements
Track Severe Weather on mobile